sensor_id;sensor_type;location;lat;lon;timestamp;P1;durP1;ratioP1;P2;durP2;ratioP2
14754;SDS011;7469;50.906;6.952;2024-01-25T00:01:02;50.17;;;8.70;;
14754;SDS011;7469;50.906;6.952;2024-01-25T00:03:30;42.97;;;8.37;;
14754;SDS011;7469;50.906;6.952;2024-01-25T00:05:58;54.30;;;9.20;;
14754;SDS011;7469;50.906;6.952;2024-01-25T00:08:26;37.77;;;8.60;;
14754;SDS011;7469;50.906;6.952;2024-01-25T00:10:56;42.47;;;8.63;;
14754;SDS011;7469;50.906;6.952;2024-01-25T00:13:24;42.57;;;8.10;;
14754;SDS011;7469;50.906;6.952;2024-01-25T00:15:52;41.47;;;7.87;;
14754;SDS011;7469;50.906;6.952;2024-01-25T00:18:20;44.90;;;8.47;;
14754;SDS011;7469;50.906;6.952;2024-01-25T00:20:48;42.77;;;9.23;;
14754;SDS011;7469;50.906;6.952;2024-01-25T00:23:16;39.23;;;8.50;;
14754;SDS011;7469;50.906;6.952;2024-01-25T00:25:44;43.13;;;8.73;;
14754;SDS011;7469;50.906;6.952;2024-01-25T00:28:13;51.73;;;8.90;;
14754;SDS011;7469;50.906;6.952;2024-01-25T00:30:41;43.33;;;8.07;;
14754;SDS011;7469;50.906;6.952;2024-01-25T00:33:09;38.57;;;8.07;;
14754;SDS011;7469;50.906;6.952;2024-01-25T00:35:38;39.77;;;8.40;;
14754;SDS011;7469;50.906;6.952;2024-01-25T00:38:06;43.43;;;8.27;;
14754;SDS011;7469;50.906;6.952;2024-01-25T00:40:35;62.27;;;10.13;;
14754;SDS011;7469;50.906;6.952;2024-01-25T00:43:03;41.30;;;7.83;;
14754;SDS011;7469;50.906;6.952;2024-01-25T00:45:34;43.97;;;9.40;;
14754;SDS011;7469;50.906;6.952;2024-01-25T00:48:02;44.20;;;8.70;;
14754;SDS011;7469;50.906;6.952;2024-01-25T00:50:31;35.27;;;7.63;;
14754;SDS011;7469;50.906;6.952;2024-01-25T00:53:00;38.73;;;8.23;;
14754;SDS011;7469;50.906;6.952;2024-01-25T00:55:28;45.57;;;8.83;;
14754;SDS011;7469;50.906;6.952;2024-01-25T00:57:57;44.77;;;8.20;;
14754;SDS011;7469;50.906;6.952;2024-01-25T01:00:26;36.17;;;8.80;;
14754;SDS011;7469;50.906;6.952;2024-01-25T01:02:56;40.70;;;8.40;;
14754;SDS011;7469;50.906;6.952;2024-01-25T01:05:25;30.87;;;7.53;;
14754;SDS011;7469;50.906;6.952;2024-01-25T01:07:55;42.83;;;8.40;;
14754;SDS011;7469;50.906;6.952;2024-01-25T01:10:23;37.13;;;8.37;;
14754;SDS011;7469;50.906;6.952;2024-01-25T01:12:51;44.43;;;8.63;;
14754;SDS011;7469;50.906;6.952;2024-01-25T01:15:20;34.13;;;7.07;;
14754;SDS011;7469;50.906;6.952;2024-01-25T01:17:48;43.33;;;8.40;;
14754;SDS011;7469;50.906;6.952;2024-01-25T01:20:18;40.73;;;7.60;;
14754;SDS011;7469;50.906;6.952;2024-01-25T01:22:46;40.93;;;7.93;;
14754;SDS011;7469;50.906;6.952;2024-01-25T01:25:14;39.23;;;7.53;;
14754;SDS011;7469;50.906;6.952;2024-01-25T01:27:42;41.30;;;9.23;;
14754;SDS011;7469;50.906;6.952;2024-01-25T01:30:11;50.17;;;9.00;;
14754;SDS011;7469;50.906;6.952;2024-01-25T01:32:39;48.03;;;8.13;;
14754;SDS011;7469;50.906;6.952;2024-01-25T01:35:07;38.80;;;8.13;;
14754;SDS011;7469;50.906;6.952;2024-01-25T01:37:37;40.87;;;7.70;;
14754;SDS011;7469;50.906;6.952;2024-01-25T01:40:05;43.97;;;8.33;;
14754;SDS011;7469;50.906;6.952;2024-01-25T01:42:34;38.73;;;8.03;;
14754;SDS011;7469;50.906;6.952;2024-01-25T01:45:02;41.33;;;8.63;;
14754;SDS011;7469;50.906;6.952;2024-01-25T01:47:30;35.20;;;7.60;;
14754;SDS011;7469;50.906;6.952;2024-01-25T01:49:59;34.00;;;6.50;;
14754;SDS011;7469;50.906;6.952;2024-01-25T01:52:27;43.50;;;8.53;;
14754;SDS011;7469;50.906;6.952;2024-01-25T01:54:57;35.67;;;7.97;;
14754;SDS011;7469;50.906;6.952;2024-01-25T01:57:25;33.60;;;6.87;;
14754;SDS011;7469;50.906;6.952;2024-01-25T01:59:55;39.43;;;8.20;;
14754;SDS011;7469;50.906;6.952;2024-01-25T02:02:25;40.23;;;8.13;;
14754;SDS011;7469;50.906;6.952;2024-01-25T02:04:53;45.77;;;7.80;;
14754;SDS011;7469;50.906;6.952;2024-01-25T02:07:21;42.33;;;8.20;;
14754;SDS011;7469;50.906;6.952;2024-01-25T02:09:53;48.13;;;8.13;;
14754;SDS011;7469;50.906;6.952;2024-01-25T02:12:22;44.30;;;8.97;;
14754;SDS011;7469;50.906;6.952;2024-01-25T02:14:50;38.63;;;7.73;;
14754;SDS011;7469;50.906;6.952;2024-01-25T02:17:18;45.70;;;8.47;;
14754;SDS011;7469;50.906;6.952;2024-01-25T02:19:46;38.70;;;8.10;;
14754;SDS011;7469;50.906;6.952;2024-01-25T02:22:16;42.83;;;8.03;;
14754;SDS011;7469;50.906;6.952;2024-01-25T02:24:46;40.57;;;7.67;;
14754;SDS011;7469;50.906;6.952;2024-01-25T02:27:14;41.43;;;7.20;;
14754;SDS011;7469;50.906;6.952;2024-01-25T02:29:42;35.23;;;7.93;;
14754;SDS011;7469;50.906;6.952;2024-01-25T02:32:10;33.60;;;7.00;;
14754;SDS011;7469;50.906;6.952;2024-01-25T02:34:38;34.67;;;7.73;;
14754;SDS011;7469;50.906;6.952;2024-01-25T02:37:06;44.37;;;8.53;;
14754;SDS011;7469;50.906;6.952;2024-01-25T02:39:35;42.37;;;8.07;;
14754;SDS011;7469;50.906;6.952;2024-01-25T02:42:04;48.13;;;7.97;;
14754;SDS011;7469;50.906;6.952;2024-01-25T02:44:32;41.03;;;7.43;;
14754;SDS011;7469;50.906;6.952;2024-01-25T02:47:00;41.23;;;7.73;;
14754;SDS011;7469;50.906;6.952;2024-01-25T02:49:28;47.83;;;8.37;;
14754;SDS011;7469;50.906;6.952;2024-01-25T02:51:56;46.07;;;8.23;;
14754;SDS011;7469;50.906;6.952;2024-01-25T02:54:24;48.10;;;8.60;;
14754;SDS011;7469;50.906;6.952;2024-01-25T02:56:54;47.50;;;7.70;;
14754;SDS011;7469;50.906;6.952;2024-01-25T02:59:21;31.63;;;7.63;;
14754;SDS011;7469;50.906;6.952;2024-01-25T03:01:49;40.03;;;8.23;;
14754;SDS011;7469;50.906;6.952;2024-01-25T03:04:18;42.70;;;8.73;;
14754;SDS011;7469;50.906;6.952;2024-01-25T03:06:46;42.63;;;7.47;;
14754;SDS011;7469;50.906;6.952;2024-01-25T03:09:15;46.00;;;9.80;;
14754;SDS011;7469;50.906;6.952;2024-01-25T03:11:43;39.87;;;8.13;;
14754;SDS011;7469;50.906;6.952;2024-01-25T03:14:13;45.37;;;8.47;;
14754;SDS011;7469;50.906;6.952;2024-01-25T03:16:40;44.10;;;8.67;;
14754;SDS011;7469;50.906;6.952;2024-01-25T03:19:10;45.77;;;8.43;;
14754;SDS011;7469;50.906;6.952;2024-01-25T03:21:38;39.67;;;7.70;;
14754;SDS011;7469;50.906;6.952;2024-01-25T03:24:06;48.57;;;8.47;;
14754;SDS011;7469;50.906;6.952;2024-01-25T03:26:34;39.17;;;8.10;;
14754;SDS011;7469;50.906;6.952;2024-01-25T03:29:02;45.60;;;8.27;;
14754;SDS011;7469;50.906;6.952;2024-01-25T03:31:31;43.50;;;8.40;;
14754;SDS011;7469;50.906;6.952;2024-01-25T03:34:00;39.40;;;7.80;;
14754;SDS011;7469;50.906;6.952;2024-01-25T03:36:29;40.40;;;8.30;;
14754;SDS011;7469;50.906;6.952;2024-01-25T03:38:57;46.53;;;8.53;;
14754;SDS011;7469;50.906;6.952;2024-01-25T03:41:25;40.07;;;7.77;;
14754;SDS011;7469;50.906;6.952;2024-01-25T03:43:55;39.70;;;8.17;;
14754;SDS011;7469;50.906;6.952;2024-01-25T03:46:25;36.10;;;7.17;;
14754;SDS011;7469;50.906;6.952;2024-01-25T03:48:56;41.60;;;7.30;;
14754;SDS011;7469;50.906;6.952;2024-01-25T03:51:24;48.50;;;7.83;;
14754;SDS011;7469;50.906;6.952;2024-01-25T03:53:52;43.13;;;8.80;;
14754;SDS011;7469;50.906;6.952;2024-01-25T03:56:21;45.53;;;8.63;;
14754;SDS011;7469;50.906;6.952;2024-01-25T03:58:49;44.43;;;8.30;;
14754;SDS011;7469;50.906;6.952;2024-01-25T04:01:17;48.33;;;8.17;;
14754;SDS011;7469;50.906;6.952;2024-01-25T04:03:45;41.63;;;7.70;;
14754;SDS011;7469;50.906;6.952;2024-01-25T04:06:14;43.47;;;8.33;;
14754;SDS011;7469;50.906;6.952;2024-01-25T04:08:43;41.13;;;8.53;;
14754;SDS011;7469;50.906;6.952;2024-01-25T04:11:11;42.80;;;9.23;;
14754;SDS011;7469;50.906;6.952;2024-01-25T04:13:40;50.60;;;8.97;;
14754;SDS011;7469;50.906;6.952;2024-01-25T04:16:13;46.73;;;8.73;;
14754;SDS011;7469;50.906;6.952;2024-01-25T04:18:41;37.80;;;8.33;;
14754;SDS011;7469;50.906;6.952;2024-01-25T04:21:09;44.00;;;8.27;;
14754;SDS011;7469;50.906;6.952;2024-01-25T04:23:38;49.40;;;8.07;;
14754;SDS011;7469;50.906;6.952;2024-01-25T04:26:06;46.90;;;9.73;;
14754;SDS011;7469;50.906;6.952;2024-01-25T04:28:34;43.37;;;8.47;;
14754;SDS011;7469;50.906;6.952;2024-01-25T04:31:02;50.03;;;8.80;;
14754;SDS011;7469;50.906;6.952;2024-01-25T04:33:31;41.70;;;8.67;;
14754;SDS011;7469;50.906;6.952;2024-01-25T04:35:59;41.50;;;8.17;;
14754;SDS011;7469;50.906;6.952;2024-01-25T04:38:27;46.67;;;8.90;;
14754;SDS011;7469;50.906;6.952;2024-01-25T04:40:57;41.97;;;7.73;;
14754;SDS011;7469;50.906;6.952;2024-01-25T04:43:25;45.87;;;8.67;;
14754;SDS011;7469;50.906;6.952;2024-01-25T04:45:53;44.17;;;8.80;;
14754;SDS011;7469;50.906;6.952;2024-01-25T04:48:21;48.23;;;8.93;;
14754;SDS011;7469;50.906;6.952;2024-01-25T04:50:49;38.40;;;7.77;;
14754;SDS011;7469;50.906;6.952;2024-01-25T04:53:17;36.50;;;8.07;;
14754;SDS011;7469;50.906;6.952;2024-01-25T04:55:45;45.60;;;8.83;;
14754;SDS011;7469;50.906;6.952;2024-01-25T04:58:14;52.83;;;8.97;;
14754;SDS011;7469;50.906;6.952;2024-01-25T05:00:42;44.33;;;8.93;;
14754;SDS011;7469;50.906;6.952;2024-01-25T05:03:10;46.87;;;9.57;;
14754;SDS011;7469;50.906;6.952;2024-01-25T05:05:38;49.53;;;8.60;;
14754;SDS011;7469;50.906;6.952;2024-01-25T05:08:06;54.57;;;8.67;;
14754;SDS011;7469;50.906;6.952;2024-01-25T05:10:34;42.33;;;7.90;;
14754;SDS011;7469;50.906;6.952;2024-01-25T05:13:02;46.80;;;8.93;;
14754;SDS011;7469;50.906;6.952;2024-01-25T05:15:32;53.20;;;9.13;;
14754;SDS011;7469;50.906;6.952;2024-01-25T05:18:00;46.27;;;9.13;;
14754;SDS011;7469;50.906;6.952;2024-01-25T05:20:29;44.27;;;9.80;;
14754;SDS011;7469;50.906;6.952;2024-01-25T05:22:59;51.20;;;9.77;;
14754;SDS011;7469;50.906;6.952;2024-01-25T05:25:29;47.57;;;8.57;;
14754;SDS011;7469;50.906;6.952;2024-01-25T05:27:57;50.50;;;8.13;;
14754;SDS011;7469;50.906;6.952;2024-01-25T05:30:26;41.47;;;8.30;;
14754;SDS011;7469;50.906;6.952;2024-01-25T05:32:57;41.27;;;8.00;;
14754;SDS011;7469;50.906;6.952;2024-01-25T05:35:25;48.80;;;8.07;;
14754;SDS011;7469;50.906;6.952;2024-01-25T05:37:53;48.13;;;8.33;;
14754;SDS011;7469;50.906;6.952;2024-01-25T05:40:21;47.03;;;9.03;;
14754;SDS011;7469;50.906;6.952;2024-01-25T05:42:49;39.27;;;8.67;;
14754;SDS011;7469;50.906;6.952;2024-01-25T05:45:18;44.73;;;8.40;;
14754;SDS011;7469;50.906;6.952;2024-01-25T05:47:47;49.63;;;8.53;;
14754;SDS011;7469;50.906;6.952;2024-01-25T05:50:18;48.40;;;7.90;;
14754;SDS011;7469;50.906;6.952;2024-01-25T05:52:46;51.27;;;8.83;;
14754;SDS011;7469;50.906;6.952;2024-01-25T05:55:14;49.27;;;9.10;;
14754;SDS011;7469;50.906;6.952;2024-01-25T05:57:43;49.53;;;9.17;;
14754;SDS011;7469;50.906;6.952;2024-01-25T06:00:12;45.00;;;9.20;;
14754;SDS011;7469;50.906;6.952;2024-01-25T06:02:45;43.47;;;8.40;;
14754;SDS011;7469;50.906;6.952;2024-01-25T06:05:13;43.87;;;8.80;;
14754;SDS011;7469;50.906;6.952;2024-01-25T06:07:43;53.07;;;8.87;;
14754;SDS011;7469;50.906;6.952;2024-01-25T06:10:11;51.23;;;10.10;;
14754;SDS011;7469;50.906;6.952;2024-01-25T06:12:39;46.40;;;9.37;;
14754;SDS011;7469;50.906;6.952;2024-01-25T06:15:08;50.10;;;8.67;;
14754;SDS011;7469;50.906;6.952;2024-01-25T06:17:36;53.80;;;9.77;;
14754;SDS011;7469;50.906;6.952;2024-01-25T06:20:05;59.90;;;9.10;;
14754;SDS011;7469;50.906;6.952;2024-01-25T06:22:34;32.17;;;7.93;;
14754;SDS011;7469;50.906;6.952;2024-01-25T06:25:03;46.97;;;8.60;;
14754;SDS011;7469;50.906;6.952;2024-01-25T06:27:34;43.23;;;8.10;;
14754;SDS011;7469;50.906;6.952;2024-01-25T06:30:02;50.63;;;8.93;;
14754;SDS011;7469;50.906;6.952;2024-01-25T06:32:31;48.20;;;8.70;;
14754;SDS011;7469;50.906;6.952;2024-01-25T06:34:59;45.63;;;8.40;;
14754;SDS011;7469;50.906;6.952;2024-01-25T06:37:27;36.93;;;8.43;;
14754;SDS011;7469;50.906;6.952;2024-01-25T06:39:55;48.67;;;9.07;;
14754;SDS011;7469;50.906;6.952;2024-01-25T06:42:24;50.40;;;10.23;;
14754;SDS011;7469;50.906;6.952;2024-01-25T06:44:52;47.73;;;8.30;;
14754;SDS011;7469;50.906;6.952;2024-01-25T06:47:20;48.47;;;8.63;;
14754;SDS011;7469;50.906;6.952;2024-01-25T06:49:49;41.23;;;8.50;;
14754;SDS011;7469;50.906;6.952;2024-01-25T06:52:18;46.47;;;8.57;;
14754;SDS011;7469;50.906;6.952;2024-01-25T06:54:46;55.67;;;9.20;;
14754;SDS011;7469;50.906;6.952;2024-01-25T06:57:14;49.67;;;9.00;;
14754;SDS011;7469;50.906;6.952;2024-01-25T06:59:44;44.57;;;8.37;;
14754;SDS011;7469;50.906;6.952;2024-01-25T07:02:11;46.57;;;8.87;;
14754;SDS011;7469;50.906;6.952;2024-01-25T07:04:40;43.73;;;8.47;;
14754;SDS011;7469;50.906;6.952;2024-01-25T07:07:09;48.47;;;8.40;;
14754;SDS011;7469;50.906;6.952;2024-01-25T07:09:37;51.00;;;8.67;;
14754;SDS011;7469;50.906;6.952;2024-01-25T07:12:05;41.17;;;7.67;;
14754;SDS011;7469;50.906;6.952;2024-01-25T07:14:33;42.87;;;7.90;;
14754;SDS011;7469;50.906;6.952;2024-01-25T07:17:03;45.83;;;7.90;;
14754;SDS011;7469;50.906;6.952;2024-01-25T07:19:31;40.33;;;7.57;;
14754;SDS011;7469;50.906;6.952;2024-01-25T07:22:00;41.97;;;8.73;;
14754;SDS011;7469;50.906;6.952;2024-01-25T07:24:28;45.67;;;8.13;;
14754;SDS011;7469;50.906;6.952;2024-01-25T07:26:56;48.63;;;8.60;;
14754;SDS011;7469;50.906;6.952;2024-01-25T07:29:24;36.23;;;6.57;;
14754;SDS011;7469;50.906;6.952;2024-01-25T07:31:52;37.60;;;7.87;;
14754;SDS011;7469;50.906;6.952;2024-01-25T07:34:21;41.53;;;8.33;;
14754;SDS011;7469;50.906;6.952;2024-01-25T07:36:49;37.00;;;7.73;;
14754;SDS011;7469;50.906;6.952;2024-01-25T07:39:17;45.03;;;8.23;;
14754;SDS011;7469;50.906;6.952;2024-01-25T07:41:45;52.60;;;8.97;;
14754;SDS011;7469;50.906;6.952;2024-01-25T07:44:13;40.67;;;8.40;;
14754;SDS011;7469;50.906;6.952;2024-01-25T07:46:41;40.90;;;8.93;;
14754;SDS011;7469;50.906;6.952;2024-01-25T07:49:09;60.00;;;9.30;;
14754;SDS011;7469;50.906;6.952;2024-01-25T07:51:39;53.00;;;9.60;;
14754;SDS011;7469;50.906;6.952;2024-01-25T07:54:07;50.03;;;9.07;;
14754;SDS011;7469;50.906;6.952;2024-01-25T07:56:35;47.60;;;9.07;;
14754;SDS011;7469;50.906;6.952;2024-01-25T07:59:03;57.27;;;9.50;;
14754;SDS011;7469;50.906;6.952;2024-01-25T08:01:31;42.63;;;8.27;;
14754;SDS011;7469;50.906;6.952;2024-01-25T08:03:59;38.87;;;8.77;;
14754;SDS011;7469;50.906;6.952;2024-01-25T08:06:27;44.70;;;9.03;;
14754;SDS011;7469;50.906;6.952;2024-01-25T08:08:57;39.60;;;8.10;;
14754;SDS011;7469;50.906;6.952;2024-01-25T08:11:25;41.03;;;8.93;;
14754;SDS011;7469;50.906;6.952;2024-01-25T08:13:53;47.97;;;9.23;;
14754;SDS011;7469;50.906;6.952;2024-01-25T08:16:21;45.00;;;9.80;;
14754;SDS011;7469;50.906;6.952;2024-01-25T08:18:49;42.53;;;9.70;;
14754;SDS011;7469;50.906;6.952;2024-01-25T08:21:17;45.20;;;8.83;;
14754;SDS011;7469;50.906;6.952;2024-01-25T08:23:45;49.27;;;10.27;;
14754;SDS011;7469;50.906;6.952;2024-01-25T08:26:14;42.90;;;10.20;;
14754;SDS011;7469;50.906;6.952;2024-01-25T08:28:43;41.27;;;9.67;;
14754;SDS011;7469;50.906;6.952;2024-01-25T08:31:11;49.47;;;9.60;;
14754;SDS011;7469;50.906;6.952;2024-01-25T08:33:39;42.90;;;8.97;;
14754;SDS011;7469;50.906;6.952;2024-01-25T08:36:12;50.03;;;9.83;;
14754;SDS011;7469;50.906;6.952;2024-01-25T08:38:40;41.57;;;9.97;;
14754;SDS011;7469;50.906;6.952;2024-01-25T08:41:08;37.03;;;9.13;;
14754;SDS011;7469;50.906;6.952;2024-01-25T08:43:38;38.13;;;9.97;;
14754;SDS011;7469;50.906;6.952;2024-01-25T08:46:06;43.57;;;11.23;;
14754;SDS011;7469;50.906;6.952;2024-01-25T08:48:34;40.33;;;9.70;;
14754;SDS011;7469;50.906;6.952;2024-01-25T08:51:03;45.80;;;10.27;;
14754;SDS011;7469;50.906;6.952;2024-01-25T08:53:31;44.27;;;11.37;;
14754;SDS011;7469;50.906;6.952;2024-01-25T08:55:59;38.47;;;11.63;;
14754;SDS011;7469;50.906;6.952;2024-01-25T08:58:31;38.57;;;11.03;;
14754;SDS011;7469;50.906;6.952;2024-01-25T09:01:00;43.40;;;11.50;;
14754;SDS011;7469;50.906;6.952;2024-01-25T09:03:29;46.77;;;11.03;;
14754;SDS011;7469;50.906;6.952;2024-01-25T09:05:57;40.93;;;11.40;;
14754;SDS011;7469;50.906;6.952;2024-01-25T09:08:39;45.27;;;10.97;;
14754;SDS011;7469;50.906;6.952;2024-01-25T09:11:07;39.17;;;10.37;;
14754;SDS011;7469;50.906;6.952;2024-01-25T09:13:35;35.73;;;10.37;;
14754;SDS011;7469;50.906;6.952;2024-01-25T09:16:13;32.90;;;9.97;;
14754;SDS011;7469;50.906;6.952;2024-01-25T09:18:42;37.60;;;10.80;;
14754;SDS011;7469;50.906;6.952;2024-01-25T09:21:10;35.70;;;10.17;;
14754;SDS011;7469;50.906;6.952;2024-01-25T09:23:39;41.83;;;11.17;;
14754;SDS011;7469;50.906;6.952;2024-01-25T09:26:07;41.53;;;10.30;;
14754;SDS011;7469;50.906;6.952;2024-01-25T09:28:35;43.63;;;10.63;;
14754;SDS011;7469;50.906;6.952;2024-01-25T09:31:03;41.00;;;10.77;;
14754;SDS011;7469;50.906;6.952;2024-01-25T09:33:34;39.77;;;10.83;;
14754;SDS011;7469;50.906;6.952;2024-01-25T09:36:02;41.43;;;11.03;;
14754;SDS011;7469;50.906;6.952;2024-01-25T09:38:31;45.40;;;10.43;;
14754;SDS011;7469;50.906;6.952;2024-01-25T09:40:59;38.07;;;10.40;;
14754;SDS011;7469;50.906;6.952;2024-01-25T09:43:29;39.43;;;10.40;;
14754;SDS011;7469;50.906;6.952;2024-01-25T09:45:58;38.17;;;10.47;;
14754;SDS011;7469;50.906;6.952;2024-01-25T09:48:28;41.03;;;10.47;;
14754;SDS011;7469;50.906;6.952;2024-01-25T09:50:58;35.20;;;10.50;;
14754;SDS011;7469;50.906;6.952;2024-01-25T09:53:27;36.13;;;10.03;;
14754;SDS011;7469;50.906;6.952;2024-01-25T09:56:00;31.20;;;10.47;;
14754;SDS011;7469;50.906;6.952;2024-01-25T09:58:34;37.77;;;10.37;;
14754;SDS011;7469;50.906;6.952;2024-01-25T10:01:05;47.03;;;12.40;;
14754;SDS011;7469;50.906;6.952;2024-01-25T10:03:36;34.43;;;9.73;;
14754;SDS011;7469;50.906;6.952;2024-01-25T10:06:07;33.63;;;10.20;;
14754;SDS011;7469;50.906;6.952;2024-01-25T10:08:36;43.63;;;10.97;;
14754;SDS011;7469;50.906;6.952;2024-01-25T10:11:04;37.30;;;9.83;;
14754;SDS011;7469;50.906;6.952;2024-01-25T10:13:32;30.77;;;9.43;;
14754;SDS011;7469;50.906;6.952;2024-01-25T10:16:10;30.67;;;10.10;;
14754;SDS011;7469;50.906;6.952;2024-01-25T10:18:39;44.40;;;10.77;;
14754;SDS011;7469;50.906;6.952;2024-01-25T10:21:10;38.30;;;10.33;;
14754;SDS011;7469;50.906;6.952;2024-01-25T10:23:39;37.30;;;10.40;;
14754;SDS011;7469;50.906;6.952;2024-01-25T10:26:08;38.07;;;10.63;;
14754;SDS011;7469;50.906;6.952;2024-01-25T10:28:37;33.23;;;10.73;;
14754;SDS011;7469;50.906;6.952;2024-01-25T10:31:05;31.27;;;9.70;;
14754;SDS011;7469;50.906;6.952;2024-01-25T10:33:35;27.90;;;9.37;;
14754;SDS011;7469;50.906;6.952;2024-01-25T10:36:06;42.77;;;10.30;;
14754;SDS011;7469;50.906;6.952;2024-01-25T10:38:38;43.67;;;9.87;;
14754;SDS011;7469;50.906;6.952;2024-01-25T10:41:06;38.97;;;10.23;;
14754;SDS011;7469;50.906;6.952;2024-01-25T10:43:34;31.07;;;9.63;;
14754;SDS011;7469;50.906;6.952;2024-01-25T10:46:02;32.73;;;9.73;;
14754;SDS011;7469;50.906;6.952;2024-01-25T10:48:31;33.83;;;8.83;;
14754;SDS011;7469;50.906;6.952;2024-01-25T10:51:00;40.30;;;10.77;;
14754;SDS011;7469;50.906;6.952;2024-01-25T10:53:31;34.30;;;9.93;;
14754;SDS011;7469;50.906;6.952;2024-01-25T10:56:01;36.70;;;10.43;;
14754;SDS011;7469;50.906;6.952;2024-01-25T10:58:30;28.47;;;9.53;;
14754;SDS011;7469;50.906;6.952;2024-01-25T11:01:07;32.50;;;10.53;;
14754;SDS011;7469;50.906;6.952;2024-01-25T11:03:42;43.00;;;10.47;;
14754;SDS011;7469;50.906;6.952;2024-01-25T11:06:13;30.40;;;8.37;;
14754;SDS011;7469;50.906;6.952;2024-01-25T11:08:43;31.13;;;8.83;;
14754;SDS011;7469;50.906;6.952;2024-01-25T11:11:11;37.70;;;9.47;;
14754;SDS011;7469;50.906;6.952;2024-01-25T11:13:41;29.87;;;8.90;;
14754;SDS011;7469;50.906;6.952;2024-01-25T11:16:11;33.93;;;9.43;;
14754;SDS011;7469;50.906;6.952;2024-01-25T11:18:49;28.37;;;8.70;;
14754;SDS011;7469;50.906;6.952;2024-01-25T11:21:25;29.83;;;9.20;;
14754;SDS011;7469;50.906;6.952;2024-01-25T11:24:02;30.83;;;8.77;;
14754;SDS011;7469;50.906;6.952;2024-01-25T11:26:32;37.37;;;9.50;;
14754;SDS011;7469;50.906;6.952;2024-01-25T11:29:00;36.27;;;9.57;;
14754;SDS011;7469;50.906;6.952;2024-01-25T11:31:29;31.27;;;9.00;;
14754;SDS011;7469;50.906;6.952;2024-01-25T11:33:58;27.17;;;7.97;;
14754;SDS011;7469;50.906;6.952;2024-01-25T11:36:27;30.53;;;7.70;;
14754;SDS011;7469;50.906;6.952;2024-01-25T11:38:55;26.87;;;8.57;;
14754;SDS011;7469;50.906;6.952;2024-01-25T11:41:26;27.73;;;8.10;;
14754;SDS011;7469;50.906;6.952;2024-01-25T11:43:54;33.03;;;8.40;;
14754;SDS011;7469;50.906;6.952;2024-01-25T11:46:22;44.47;;;8.73;;
14754;SDS011;7469;50.906;6.952;2024-01-25T11:48:51;24.03;;;7.63;;
14754;SDS011;7469;50.906;6.952;2024-01-25T11:51:19;28.77;;;7.97;;
14754;SDS011;7469;50.906;6.952;2024-01-25T11:53:47;30.13;;;8.50;;
14754;SDS011;7469;50.906;6.952;2024-01-25T11:56:16;29.87;;;7.90;;
14754;SDS011;7469;50.906;6.952;2024-01-25T11:58:48;39.60;;;8.40;;
14754;SDS011;7469;50.906;6.952;2024-01-25T12:01:17;29.13;;;7.37;;
14754;SDS011;7469;50.906;6.952;2024-01-25T12:03:46;34.67;;;7.83;;
14754;SDS011;7469;50.906;6.952;2024-01-25T12:06:14;27.63;;;7.50;;
14754;SDS011;7469;50.906;6.952;2024-01-25T12:08:44;28.17;;;6.73;;
14754;SDS011;7469;50.906;6.952;2024-01-25T12:11:14;27.20;;;6.73;;
14754;SDS011;7469;50.906;6.952;2024-01-25T12:13:44;31.27;;;7.53;;
14754;SDS011;7469;50.906;6.952;2024-01-25T12:16:13;29.23;;;7.63;;
14754;SDS011;7469;50.906;6.952;2024-01-25T12:18:42;26.73;;;7.00;;
14754;SDS011;7469;50.906;6.952;2024-01-25T12:21:13;26.90;;;6.87;;
14754;SDS011;7469;50.906;6.952;2024-01-25T12:23:41;26.67;;;7.03;;
14754;SDS011;7469;50.906;6.952;2024-01-25T12:26:10;28.30;;;6.73;;
14754;SDS011;7469;50.906;6.952;2024-01-25T12:28:39;30.97;;;6.60;;
14754;SDS011;7469;50.906;6.952;2024-01-25T12:31:08;25.20;;;6.57;;
14754;SDS011;7469;50.906;6.952;2024-01-25T12:33:37;30.70;;;7.20;;
14754;SDS011;7469;50.906;6.952;2024-01-25T12:36:09;27.50;;;6.53;;
14754;SDS011;7469;50.906;6.952;2024-01-25T12:38:37;20.97;;;6.00;;
14754;SDS011;7469;50.906;6.952;2024-01-25T12:41:05;26.57;;;6.60;;
14754;SDS011;7469;50.906;6.952;2024-01-25T12:43:34;31.07;;;6.97;;
14754;SDS011;7469;50.906;6.952;2024-01-25T12:46:02;27.43;;;6.37;;
14754;SDS011;7469;50.906;6.952;2024-01-25T12:48:49;27.00;;;6.57;;
14754;SDS011;7469;50.906;6.952;2024-01-25T12:51:21;27.57;;;6.37;;
14754;SDS011;7469;50.906;6.952;2024-01-25T12:53:49;25.33;;;5.83;;
14754;SDS011;7469;50.906;6.952;2024-01-25T12:56:18;26.30;;;6.17;;
14754;SDS011;7469;50.906;6.952;2024-01-25T12:58:46;30.13;;;6.47;;
14754;SDS011;7469;50.906;6.952;2024-01-25T13:01:16;24.97;;;6.53;;
14754;SDS011;7469;50.906;6.952;2024-01-25T13:03:44;26.33;;;6.30;;
14754;SDS011;7469;50.906;6.952;2024-01-25T13:06:15;26.17;;;6.30;;
14754;SDS011;7469;50.906;6.952;2024-01-25T13:08:44;26.93;;;6.07;;
14754;SDS011;7469;50.906;6.952;2024-01-25T13:11:12;30.90;;;6.40;;
14754;SDS011;7469;50.906;6.952;2024-01-25T13:13:40;27.87;;;5.57;;
14754;SDS011;7469;50.906;6.952;2024-01-25T13:16:08;19.17;;;5.63;;
14754;SDS011;7469;50.906;6.952;2024-01-25T13:18:36;22.70;;;5.47;;
14754;SDS011;7469;50.906;6.952;2024-01-25T13:21:04;25.43;;;6.07;;
14754;SDS011;7469;50.906;6.952;2024-01-25T13:23:33;26.87;;;5.80;;
14754;SDS011;7469;50.906;6.952;2024-01-25T13:26:01;24.53;;;5.43;;
14754;SDS011;7469;50.906;6.952;2024-01-25T13:28:29;22.33;;;5.73;;
14754;SDS011;7469;50.906;6.952;2024-01-25T13:30:58;24.23;;;5.10;;
14754;SDS011;7469;50.906;6.952;2024-01-25T13:33:26;29.00;;;5.83;;
14754;SDS011;7469;50.906;6.952;2024-01-25T13:35:55;27.10;;;5.93;;
14754;SDS011;7469;50.906;6.952;2024-01-25T13:38:23;18.13;;;5.57;;
14754;SDS011;7469;50.906;6.952;2024-01-25T13:40:52;29.10;;;6.17;;
14754;SDS011;7469;50.906;6.952;2024-01-25T13:43:20;27.87;;;5.53;;
14754;SDS011;7469;50.906;6.952;2024-01-25T13:45:48;27.23;;;5.70;;
14754;SDS011;7469;50.906;6.952;2024-01-25T13:48:16;29.70;;;5.60;;
14754;SDS011;7469;50.906;6.952;2024-01-25T13:50:45;18.90;;;5.07;;
14754;SDS011;7469;50.906;6.952;2024-01-25T13:53:13;24.20;;;5.93;;
14754;SDS011;7469;50.906;6.952;2024-01-25T13:55:41;24.40;;;5.80;;
14754;SDS011;7469;50.906;6.952;2024-01-25T13:58:10;17.97;;;5.70;;
14754;SDS011;7469;50.906;6.952;2024-01-25T14:00:39;25.67;;;6.20;;
14754;SDS011;7469;50.906;6.952;2024-01-25T14:03:07;24.83;;;6.10;;
14754;SDS011;7469;50.906;6.952;2024-01-25T14:05:35;22.67;;;5.80;;
14754;SDS011;7469;50.906;6.952;2024-01-25T14:08:04;25.90;;;5.63;;
14754;SDS011;7469;50.906;6.952;2024-01-25T14:10:33;22.57;;;5.83;;
14754;SDS011;7469;50.906;6.952;2024-01-25T14:13:03;31.67;;;6.07;;
14754;SDS011;7469;50.906;6.952;2024-01-25T14:15:32;21.90;;;5.33;;
14754;SDS011;7469;50.906;6.952;2024-01-25T14:18:02;26.83;;;5.43;;
14754;SDS011;7469;50.906;6.952;2024-01-25T14:20:31;23.13;;;5.30;;
14754;SDS011;7469;50.906;6.952;2024-01-25T14:22:59;18.10;;;5.27;;
14754;SDS011;7469;50.906;6.952;2024-01-25T14:25:28;26.60;;;6.20;;
14754;SDS011;7469;50.906;6.952;2024-01-25T14:27:56;28.23;;;5.90;;
14754;SDS011;7469;50.906;6.952;2024-01-25T14:30:24;25.30;;;5.80;;
14754;SDS011;7469;50.906;6.952;2024-01-25T14:32:54;25.20;;;5.87;;
14754;SDS011;7469;50.906;6.952;2024-01-25T14:35:23;24.17;;;6.73;;
14754;SDS011;7469;50.906;6.952;2024-01-25T14:37:54;25.20;;;6.27;;
14754;SDS011;7469;50.906;6.952;2024-01-25T14:40:22;27.60;;;5.63;;
14754;SDS011;7469;50.906;6.952;2024-01-25T14:43:11;25.33;;;4.97;;
14754;SDS011;7469;50.906;6.952;2024-01-25T14:45:40;26.03;;;5.73;;
14754;SDS011;7469;50.906;6.952;2024-01-25T14:48:09;25.80;;;5.73;;
14754;SDS011;7469;50.906;6.952;2024-01-25T14:50:38;24.67;;;5.60;;
14754;SDS011;7469;50.906;6.952;2024-01-25T14:53:06;25.43;;;6.00;;
14754;SDS011;7469;50.906;6.952;2024-01-25T14:55:33;26.03;;;5.83;;